Time;durP1;ratioP1;P1;durP2;ratioP2;P2;SDS_P1;SDS_P2;PMS_P1;PMS_P2;Temp;Humidity;BMP_temperature;BMP_pressure;BME280_temperature;BME280_humidity;BME280_pressure;Samples;Min_cycle;Max_cycle;Signal;HPM_P1;HPM_P2
2023/08/15 00:01:08;;;;;;;8.82;5.10;;;;;;;;;;5031863;28;20028;-73
2023/08/15 00:03:33;;;;;;;13.38;5.63;;;;;;;;;;5034776;28;20021;-75
2023/08/15 00:05:59;;;;;;;13.05;5.47;;;;;;;;;;5035423;28;20025;-74
2023/08/15 00:08:25;;;;;;;11.00;5.47;;;;;;;;;;5035413;28;20028;-75
2023/08/15 00:10:51;;;;;;;10.63;5.65;;;;;;;;;;5033596;28;20399;-74
2023/08/15 00:13:17;;;;;;;14.07;5.45;;;;;;;;;;5033620;28;20029;-73
2023/08/15 00:15:43;;;;;;;18.80;6.05;;;;;;;;;;5034123;28;20099;-74
2023/08/15 00:18:09;;;;;;;9.00;5.28;;;;;;;;;;5034009;28;20029;-74
2023/08/15 00:20:35;;;;;;;11.45;5.68;;;;;;;;;;5034528;28;20055;-74
2023/08/15 00:23:01;;;;;;;12.88;5.57;;;;;;;;;;5033786;28;20030;-77
2023/08/15 00:25:27;;;;;;;9.20;5.32;;;;;;;;;;5034187;28;20029;-75
2023/08/15 00:27:53;;;;;;;12.98;6.07;;;;;;;;;;5033901;28;20387;-74
2023/08/15 00:30:19;;;;;;;10.60;5.60;;;;;;;;;;5033941;28;20041;-74
2023/08/15 00:32:46;;;;;;;13.05;5.53;;;;;;;;;;5034682;28;20036;-74
2023/08/15 00:35:12;;;;;;;13.05;5.72;;;;;;;;;;5034003;28;20100;-75
2023/08/15 00:37:38;;;;;;;10.55;5.50;;;;;;;;;;5033542;28;20116;-75
2023/08/15 00:40:05;;;;;;;11.60;6.05;;;;;;;;;;5033677;28;20027;-75
2023/08/15 00:42:31;;;;;;;11.20;5.10;;;;;;;;;;5033212;28;20028;-73
2023/08/15 00:44:57;;;;;;;13.50;5.40;;;;;;;;;;5033676;28;20029;-74
2023/08/15 00:47:23;;;;;;;18.48;5.95;;;;;;;;;;5033950;28;20041;-73
2023/08/15 00:49:49;;;;;;;9.65;5.30;;;;;;;;;;5033613;28;20049;-74
2023/08/15 00:52:16;;;;;;;11.27;5.72;;;;;;;;;;5033531;28;20443;-75
2023/08/15 00:54:46;;;;;;;14.50;5.43;;;;;;;;;;5033483;28;20030;-75
2023/08/15 00:57:13;;;;;;;13.45;5.60;;;;;;;;;;5032247;28;20029;-75
2023/08/15 00:59:39;;;;;;;10.48;5.63;;;;;;;;;;5033390;28;20025;-72
2023/08/15 01:02:05;;;;;;;14.93;5.53;;;;;;;;;;5032897;28;20537;-74
2023/08/15 01:04:32;;;;;;;12.45;6.03;;;;;;;;;;5033118;28;20022;-74
2023/08/15 01:06:58;;;;;;;9.32;5.65;;;;;;;;;;5033223;28;20028;-73
2023/08/15 01:09:24;;;;;;;10.15;5.90;;;;;;;;;;5033263;28;20026;-74
2023/08/15 01:11:56;;;;;;;9.75;5.60;;;;;;;;;;5033723;28;20029;-74
2023/08/15 01:14:24;;;;;;;13.95;5.80;;;;;;;;;;5034454;28;20033;-73
2023/08/15 01:16:51;;;;;;;13.77;6.13;;;;;;;;;;5034492;28;20025;-73
2023/08/15 01:19:17;;;;;;;15.13;5.90;;;;;;;;;;5033020;28;20026;-73
2023/08/15 01:21:44;;;;;;;15.30;5.50;;;;;;;;;;5032955;28;20075;-73
2023/08/15 01:24:10;;;;;;;14.90;5.97;;;;;;;;;;5033793;28;20021;-73
2023/08/15 01:26:36;;;;;;;9.88;5.72;;;;;;;;;;5034516;28;20047;-74
2023/08/15 01:29:02;;;;;;;10.10;5.53;;;;;;;;;;5039372;28;20029;-75
2023/08/15 01:31:35;;;;;;;9.02;5.53;;;;;;;;;;5035217;28;20078;-73
2023/08/15 01:34:11;;;;;;;11.50;5.70;;;;;;;;;;5032346;28;20036;-74
2023/08/15 01:36:45;;;;;;;10.18;5.20;;;;;;;;;;5032996;28;20507;-74
2023/08/15 01:39:13;;;;;;;11.60;5.00;;;;;;;;;;5032389;28;20025;-72
2023/08/15 01:41:40;;;;;;;11.90;5.05;;;;;;;;;;5032472;28;20022;-73
2023/08/15 01:44:10;;;;;;;12.13;5.13;;;;;;;;;;5032130;28;20032;-74
2023/08/15 01:46:37;;;;;;;12.88;5.30;;;;;;;;;;5031592;28;20057;-73
2023/08/15 01:49:03;;;;;;;10.50;5.18;;;;;;;;;;5031778;28;20045;-75
2023/08/15 01:51:29;;;;;;;13.07;5.95;;;;;;;;;;5033186;28;20114;-74
2023/08/15 01:53:55;;;;;;;12.57;5.35;;;;;;;;;;5032153;28;20060;-75
2023/08/15 01:56:21;;;;;;;8.80;4.80;;;;;;;;;;5032226;28;20057;-75
2023/08/15 01:58:47;;;;;;;11.27;5.38;;;;;;;;;;5032022;28;20089;-74
2023/08/15 02:01:14;;;;;;;11.15;5.32;;;;;;;;;;5032073;28;20026;-74
2023/08/15 02:03:40;;;;;;;9.95;4.85;;;;;;;;;;5031789;28;20041;-74
2023/08/15 02:06:06;;;;;;;10.63;4.68;;;;;;;;;;5032096;28;20033;-73
2023/08/15 02:08:32;;;;;;;13.25;5.22;;;;;;;;;;5032060;28;20013;-74
2023/08/15 02:10:58;;;;;;;9.82;5.35;;;;;;;;;;5032418;28;20105;-73
2023/08/15 02:13:30;;;;;;;17.70;5.85;;;;;;;;;;5031391;28;20116;-74
2023/08/15 02:15:56;;;;;;;10.07;5.28;;;;;;;;;;5032271;28;20026;-78
2023/08/15 02:18:22;;;;;;;10.02;6.07;;;;;;;;;;5032330;28;20030;-74
2023/08/15 02:20:48;;;;;;;11.50;5.70;;;;;;;;;;5031826;28;20028;-74
2023/08/15 02:23:14;;;;;;;14.93;5.45;;;;;;;;;;5031688;28;20022;-73
2023/08/15 02:25:40;;;;;;;9.82;5.10;;;;;;;;;;5032290;28;20502;-75
2023/08/15 02:28:07;;;;;;;8.27;5.05;;;;;;;;;;5031926;28;20033;-74
2023/08/15 02:30:37;;;;;;;11.75;5.70;;;;;;;;;;5031919;28;20033;-73
2023/08/15 02:33:03;;;;;;;11.32;5.40;;;;;;;;;;5032094;28;20045;-75
2023/08/15 02:35:29;;;;;;;9.05;5.05;;;;;;;;;;5032184;28;20037;-73
2023/08/15 02:37:55;;;;;;;12.35;5.80;;;;;;;;;;5032068;28;20029;-75
2023/08/15 02:40:21;;;;;;;10.48;5.32;;;;;;;;;;5032816;28;20507;-74
2023/08/15 02:42:47;;;;;;;16.38;5.05;;;;;;;;;;5031717;28;20053;-73
2023/08/15 02:45:13;;;;;;;11.85;5.45;;;;;;;;;;5032468;28;20065;-74
2023/08/15 02:47:39;;;;;;;10.40;5.13;;;;;;;;;;5032757;28;20025;-73
2023/08/15 02:50:05;;;;;;;8.13;4.78;;;;;;;;;;5031726;28;20037;-75
2023/08/15 02:52:31;;;;;;;7.97;4.53;;;;;;;;;;5031410;28;20159;-74
2023/08/15 02:54:57;;;;;;;15.20;5.25;;;;;;;;;;5031953;28;20052;-73
2023/08/15 02:57:23;;;;;;;7.75;4.32;;;;;;;;;;5031421;28;20022;-73
2023/08/15 02:59:49;;;;;;;8.27;4.53;;;;;;;;;;5033942;28;20099;-74
2023/08/15 03:02:16;;;;;;;9.85;5.20;;;;;;;;;;5035175;28;20026;-74
2023/08/15 03:04:42;;;;;;;9.10;4.95;;;;;;;;;;5035355;28;20025;-74
2023/08/15 03:07:08;;;;;;;8.13;4.40;;;;;;;;;;5035268;28;20071;-74
2023/08/15 03:09:34;;;;;;;8.02;4.93;;;;;;;;;;5036671;28;20435;-75
2023/08/15 03:12:00;;;;;;;8.23;4.85;;;;;;;;;;5035798;28;20091;-72
2023/08/15 03:14:29;;;;;;;10.75;4.82;;;;;;;;;;5035717;28;20033;-74
2023/08/15 03:16:55;;;;;;;8.18;4.55;;;;;;;;;;5035761;28;20029;-75
2023/08/15 03:19:21;;;;;;;8.50;4.85;;;;;;;;;;5033956;28;20025;-75
2023/08/15 03:21:47;;;;;;;13.13;5.55;;;;;;;;;;5037063;28;20096;-74
2023/08/15 03:24:13;;;;;;;11.63;5.10;;;;;;;;;;5035130;28;20494;-74
2023/08/15 03:26:39;;;;;;;10.15;5.10;;;;;;;;;;5035013;28;20104;-75
2023/08/15 03:29:05;;;;;;;9.63;4.70;;;;;;;;;;5035097;28;20025;-73
2023/08/15 03:31:31;;;;;;;16.88;6.15;;;;;;;;;;5034905;28;20150;-74
2023/08/15 03:33:57;;;;;;;13.75;6.22;;;;;;;;;;5034634;28;20475;-74
2023/08/15 03:36:23;;;;;;;17.60;5.80;;;;;;;;;;5034909;28;20034;-75
2023/08/15 03:38:49;;;;;;;11.82;5.43;;;;;;;;;;5034792;28;20033;-75
2023/08/15 03:41:15;;;;;;;18.08;5.97;;;;;;;;;;5035696;28;20025;-75
2023/08/15 03:43:41;;;;;;;13.98;5.40;;;;;;;;;;5034635;28;20021;-74
2023/08/15 03:46:07;;;;;;;8.60;5.68;;;;;;;;;;5036089;28;20052;-74
2023/08/15 03:48:35;;;;;;;13.43;6.88;;;;;;;;;;5038651;28;20108;-75
2023/08/15 03:51:01;;;;;;;15.50;7.60;;;;;;;;;;5037599;28;20553;-75
2023/08/15 03:53:27;;;;;;;12.27;6.65;;;;;;;;;;5034621;28;20029;-74
2023/08/15 03:55:54;;;;;;;14.02;7.13;;;;;;;;;;5034334;28;20567;-74
2023/08/15 03:58:20;;;;;;;11.32;5.97;;;;;;;;;;5033515;28;20130;-74
2023/08/15 04:00:47;;;;;;;18.02;7.30;;;;;;;;;;5033940;28;20033;-75
2023/08/15 04:03:13;;;;;;;11.57;6.45;;;;;;;;;;5033696;28;20483;-72
2023/08/15 04:05:39;;;;;;;19.00;7.78;;;;;;;;;;5034328;28;20029;-73
2023/08/15 04:08:05;;;;;;;14.70;7.55;;;;;;;;;;5034753;28;20021;-75
2023/08/15 04:10:31;;;;;;;17.40;7.10;;;;;;;;;;5034772;28;20032;-75
2023/08/15 04:12:58;;;;;;;14.73;6.85;;;;;;;;;;5033906;28;20029;-75
2023/08/15 04:15:24;;;;;;;16.27;7.38;;;;;;;;;;5035188;28;20029;-74
2023/08/15 04:17:50;;;;;;;18.17;7.00;;;;;;;;;;5035410;28;20038;-74
2023/08/15 04:20:16;;;;;;;14.02;7.53;;;;;;;;;;5034447;28;20029;-74
2023/08/15 04:22:42;;;;;;;16.05;8.15;;;;;;;;;;5034903;28;20481;-76
2023/08/15 04:25:09;;;;;;;18.85;7.93;;;;;;;;;;5033947;28;20104;-75
2023/08/15 04:27:38;;;;;;;17.30;7.22;;;;;;;;;;5033816;28;20032;-73
2023/08/15 04:30:08;;;;;;;13.70;7.78;;;;;;;;;;5033762;28;20037;-73
2023/08/15 04:32:34;;;;;;;21.17;8.52;;;;;;;;;;5033760;28;20030;-74
2023/08/15 04:35:00;;;;;;;19.52;8.07;;;;;;;;;;5033750;28;20036;-74
2023/08/15 04:37:26;;;;;;;17.08;7.95;;;;;;;;;;5033995;28;20104;-75
2023/08/15 04:39:52;;;;;;;14.55;8.43;;;;;;;;;;5033534;28;20110;-74
2023/08/15 04:42:18;;;;;;;14.80;7.78;;;;;;;;;;5034295;28;20025;-74
2023/08/15 04:44:44;;;;;;;16.92;8.38;;;;;;;;;;5035338;28;20025;-75
2023/08/15 04:47:10;;;;;;;21.80;8.45;;;;;;;;;;5033685;28;20031;-74
2023/08/15 04:49:36;;;;;;;20.00;9.27;;;;;;;;;;5033741;28;20029;-75
2023/08/15 04:52:02;;;;;;;17.33;8.20;;;;;;;;;;5033430;28;20449;-75
2023/08/15 04:54:28;;;;;;;14.60;8.18;;;;;;;;;;5034055;28;20061;-75
2023/08/15 04:56:54;;;;;;;23.90;9.57;;;;;;;;;;5033944;28;20033;-74
2023/08/15 04:59:21;;;;;;;15.35;8.27;;;;;;;;;;5034676;28;20132;-75
2023/08/15 05:01:47;;;;;;;19.10;8.88;;;;;;;;;;5033858;28;20032;-75
2023/08/15 05:04:13;;;;;;;20.73;8.05;;;;;;;;;;5033286;28;20029;-73
2023/08/15 05:06:38;;;;;;;18.02;8.27;;;;;;;;;;5033572;28;20029;-74
2023/08/15 05:09:05;;;;;;;20.48;8.93;;;;;;;;;;5033111;28;20026;-74
2023/08/15 05:11:31;;;;;;;17.10;8.77;;;;;;;;;;5032966;28;20025;-74
2023/08/15 05:13:58;;;;;;;18.17;8.63;;;;;;;;;;5029881;28;20495;-76
2023/08/15 05:16:23;;;;;;;15.38;8.77;;;;;;;;;;5033336;28;20040;-78
2023/08/15 05:18:49;;;;;;;19.27;7.97;;;;;;;;;;5032897;28;20029;-74
2023/08/15 05:21:15;;;;;;;17.95;8.55;;;;;;;;;;5032455;28;20025;-78
2023/08/15 05:23:41;;;;;;;20.13;8.93;;;;;;;;;;5029258;28;20092;-75
2023/08/15 05:26:07;;;;;;;19.02;7.90;;;;;;;;;;5034320;28;20052;-74
2023/08/15 05:28:33;;;;;;;18.13;8.23;;;;;;;;;;5032289;28;20082;-74
2023/08/15 05:30:59;;;;;;;22.92;8.73;;;;;;;;;;5032467;28;20030;-76
2023/08/15 05:33:25;;;;;;;16.85;8.18;;;;;;;;;;5031055;28;20034;-75
2023/08/15 05:35:52;;;;;;;20.05;8.32;;;;;;;;;;5030430;28;20143;-76
2023/08/15 05:38:18;;;;;;;15.73;8.85;;;;;;;;;;5032910;28;20034;-76
2023/08/15 05:40:44;;;;;;;21.73;8.27;;;;;;;;;;5031832;28;20431;-74
2023/08/15 05:43:10;;;;;;;22.77;9.00;;;;;;;;;;5038031;28;20128;-74
2023/08/15 05:45:36;;;;;;;20.63;8.32;;;;;;;;;;5039370;28;20497;-74
2023/08/15 05:48:03;;;;;;;18.80;8.07;;;;;;;;;;5033336;28;20108;-77
2023/08/15 05:50:29;;;;;;;22.38;8.20;;;;;;;;;;5031324;28;20021;-76
2023/08/15 05:52:55;;;;;;;16.38;7.95;;;;;;;;;;5032064;28;20498;-76
2023/08/15 05:55:21;;;;;;;23.08;8.57;;;;;;;;;;5033542;28;20036;-75
2023/08/15 05:57:47;;;;;;;22.52;8.52;;;;;;;;;;5030813;28;20030;-74
2023/08/15 06:00:13;;;;;;;14.35;7.10;;;;;;;;;;5032096;28;20082;-75
2023/08/15 06:02:40;;;;;;;16.45;7.85;;;;;;;;;;5031843;28;20502;-76
2023/08/15 06:05:07;;;;;;;14.32;7.28;;;;;;;;;;5030388;28;20112;-75
2023/08/15 06:07:33;;;;;;;17.70;7.90;;;;;;;;;;5031829;28;20040;-74
2023/08/15 06:09:59;;;;;;;16.05;6.50;;;;;;;;;;5032057;28;20071;-75
2023/08/15 06:12:24;;;;;;;15.40;6.75;;;;;;;;;;5031486;28;20021;-75
2023/08/15 06:14:51;;;;;;;13.35;6.28;;;;;;;;;;5030764;28;20034;-76
2023/08/15 06:17:17;;;;;;;11.68;6.18;;;;;;;;;;5033575;28;20044;-75
2023/08/15 06:19:43;;;;;;;17.98;6.72;;;;;;;;;;5032869;28;20021;-77
2023/08/15 06:22:09;;;;;;;14.82;6.20;;;;;;;;;;5030096;28;20096;-73
2023/08/15 06:24:35;;;;;;;13.88;6.38;;;;;;;;;;5032079;28;20045;-76
2023/08/15 06:27:01;;;;;;;15.90;6.22;;;;;;;;;;5031767;28;20022;-72
2023/08/15 06:29:27;;;;;;;16.35;6.53;;;;;;;;;;5031909;28;20124;-73
2023/08/15 06:31:53;;;;;;;18.17;6.47;;;;;;;;;;5031269;28;20033;-73
2023/08/15 06:34:19;;;;;;;16.70;6.95;;;;;;;;;;5031514;28;20041;-71
2023/08/15 06:36:45;;;;;;;18.15;6.43;;;;;;;;;;5031744;28;20021;-73
2023/08/15 06:39:11;;;;;;;13.98;6.95;;;;;;;;;;5031691;28;20061;-72
2023/08/15 06:41:37;;;;;;;16.67;6.43;;;;;;;;;;5032103;28;20029;-72
2023/08/15 06:44:04;;;;;;;13.20;5.85;;;;;;;;;;5031298;28;20025;-73
2023/08/15 06:46:30;;;;;;;14.32;6.40;;;;;;;;;;5031549;28;20057;-73
2023/08/15 06:48:56;;;;;;;19.73;6.28;;;;;;;;;;5031374;28;20030;-75
2023/08/15 06:51:22;;;;;;;14.50;6.65;;;;;;;;;;5031483;28;20021;-73
2023/08/15 06:53:52;;;;;;;20.05;6.95;;;;;;;;;;5030798;28;20391;-73
2023/08/15 06:56:18;;;;;;;17.55;7.68;;;;;;;;;;5031469;28;20018;-73
2023/08/15 06:58:44;;;;;;;24.20;8.02;;;;;;;;;;5031126;28;20029;-74
2023/08/15 07:01:12;;;;;;;18.13;6.45;;;;;;;;;;5031144;28;20539;-73
2023/08/15 07:03:38;;;;;;;13.35;6.50;;;;;;;;;;5030560;28;20412;-75
2023/08/15 07:06:04;;;;;;;18.35;7.10;;;;;;;;;;5031409;28;20048;-72
2023/08/15 07:08:30;;;;;;;12.00;5.55;;;;;;;;;;5031158;28;20391;-74
2023/08/15 07:10:57;;;;;;;17.65;5.85;;;;;;;;;;5032105;28;20029;-74
2023/08/15 07:13:23;;;;;;;20.15;6.78;;;;;;;;;;5030324;28;20041;-76
2023/08/15 07:15:55;;;;;;;14.68;6.63;;;;;;;;;;5031187;28;20104;-72
2023/08/15 07:18:22;;;;;;;14.55;6.50;;;;;;;;;;5030991;28;20546;-74
2023/08/15 07:20:48;;;;;;;16.88;7.05;;;;;;;;;;5030838;28;20105;-75
2023/08/15 07:23:15;;;;;;;12.90;6.38;;;;;;;;;;5030482;28;20045;-74
2023/08/15 07:25:43;;;;;;;19.33;7.68;;;;;;;;;;5031570;28;20029;-74
2023/08/15 07:28:09;;;;;;;19.83;6.50;;;;;;;;;;5031208;28;20021;-73
2023/08/15 07:30:35;;;;;;;14.80;6.63;;;;;;;;;;5031306;28;20030;-72
2023/08/15 07:33:01;;;;;;;15.85;6.55;;;;;;;;;;5031661;28;20038;-74
2023/08/15 07:35:27;;;;;;;16.90;6.07;;;;;;;;;;5032586;28;20083;-72
2023/08/15 07:37:53;;;;;;;16.90;7.60;;;;;;;;;;5031549;28;20030;-73
2023/08/15 07:40:20;;;;;;;16.67;6.63;;;;;;;;;;5030921;28;20032;-72
2023/08/15 07:42:49;;;;;;;14.75;6.78;;;;;;;;;;5030909;28;20033;-72
2023/08/15 07:45:16;;;;;;;18.08;6.80;;;;;;;;;;5031681;28;20049;-74
2023/08/15 07:47:42;;;;;;;19.80;7.03;;;;;;;;;;5035765;28;20379;-74
2023/08/15 07:50:22;;;;;;;16.33;6.20;;;;;;;;;;5035418;28;20037;-75
2023/08/15 07:52:48;;;;;;;15.45;6.40;;;;;;;;;;5034020;28;20029;-74
2023/08/15 07:55:14;;;;;;;18.17;6.68;;;;;;;;;;5033492;28;20495;-72
2023/08/15 07:57:43;;;;;;;19.67;7.38;;;;;;;;;;5034532;28;20056;-73
2023/08/15 08:00:10;;;;;;;19.17;7.22;;;;;;;;;;5036336;28;20029;-74
2023/08/15 08:02:36;;;;;;;13.32;6.20;;;;;;;;;;5035881;28;20041;-74
2023/08/15 08:05:03;;;;;;;12.25;6.45;;;;;;;;;;5035860;28;20080;-73
2023/08/15 08:07:29;;;;;;;18.50;6.22;;;;;;;;;;5035007;28;20073;-73
2023/08/15 08:09:56;;;;;;;20.55;6.50;;;;;;;;;;5034156;28;20025;-75
2023/08/15 08:12:22;;;;;;;15.98;7.35;;;;;;;;;;5033857;28;20022;-74
2023/08/15 08:14:48;;;;;;;15.45;7.00;;;;;;;;;;5034527;28;20442;-78
2023/08/15 08:17:14;;;;;;;15.18;7.13;;;;;;;;;;5034678;28;20104;-77
2023/08/15 08:19:40;;;;;;;17.75;7.70;;;;;;;;;;5034153;28;20033;-76
2023/08/15 08:22:06;;;;;;;13.63;6.68;;;;;;;;;;5033769;28;20499;-76
2023/08/15 08:24:32;;;;;;;12.85;7.10;;;;;;;;;;5034545;28;20029;-76
2023/08/15 08:26:58;;;;;;;19.52;7.82;;;;;;;;;;5034364;28;20029;-76
2023/08/15 08:29:24;;;;;;;12.07;7.18;;;;;;;;;;5034761;28;20022;-76
2023/08/15 08:31:50;;;;;;;14.57;7.47;;;;;;;;;;5035239;28;20395;-78
2023/08/15 08:34:16;;;;;;;16.85;8.30;;;;;;;;;;5034770;28;20082;-75
2023/08/15 08:36:42;;;;;;;11.80;7.65;;;;;;;;;;5033907;28;20025;-77
2023/08/15 08:39:09;;;;;;;19.88;8.45;;;;;;;;;;5035509;28;20108;-78
2023/08/15 08:41:36;;;;;;;15.18;7.95;;;;;;;;;;5034464;28;20029;-77
2023/08/15 08:44:02;;;;;;;12.93;7.72;;;;;;;;;;5034051;28;20460;-77
2023/08/15 08:46:29;;;;;;;17.65;7.93;;;;;;;;;;5034185;28;20017;-76
2023/08/15 08:49:04;;;;;;;20.45;8.45;;;;;;;;;;5033827;28;20021;-75
2023/08/15 08:51:32;;;;;;;17.33;8.40;;;;;;;;;;5033493;28;20029;-76
2023/08/15 08:53:58;;;;;;;19.40;8.52;;;;;;;;;;5033622;28;20087;-74
2023/08/15 08:56:28;;;;;;;20.95;8.07;;;;;;;;;;5033364;28;20029;-75
2023/08/15 08:58:58;;;;;;;16.77;8.32;;;;;;;;;;5033526;28;20033;-73
2023/08/15 09:01:25;;;;;;;12.15;7.38;;;;;;;;;;5034580;28;20032;-76
2023/08/15 09:03:51;;;;;;;14.70;7.50;;;;;;;;;;5032900;28;20058;-74
2023/08/15 09:06:17;;;;;;;16.58;7.45;;;;;;;;;;5033404;28;20022;-75
2023/08/15 09:08:43;;;;;;;16.65;7.75;;;;;;;;;;5033278;28;20028;-74
2023/08/15 09:11:09;;;;;;;19.73;7.50;;;;;;;;;;5033789;28;20036;-76
2023/08/15 09:13:35;;;;;;;15.15;7.32;;;;;;;;;;5031594;28;20029;-77
2023/08/15 09:16:04;;;;;;;19.23;7.85;;;;;;;;;;5033665;28;20556;-74
2023/08/15 09:18:33;;;;;;;18.33;7.40;;;;;;;;;;5033041;28;20030;-76
2023/08/15 09:20:59;;;;;;;16.85;7.07;;;;;;;;;;5033080;28;20076;-77
2023/08/15 09:23:25;;;;;;;14.45;7.55;;;;;;;;;;5031723;28;20422;-77
2023/08/15 09:25:55;;;;;;;14.13;7.40;;;;;;;;;;5032030;28;20059;-77
2023/08/15 09:28:21;;;;;;;22.90;7.10;;;;;;;;;;5032973;28;20379;-76
2023/08/15 09:30:51;;;;;;;13.15;6.55;;;;;;;;;;5032740;28;20029;-75
2023/08/15 09:33:17;;;;;;;19.38;7.18;;;;;;;;;;5032426;28;20475;-75
2023/08/15 09:35:43;;;;;;;14.88;6.38;;;;;;;;;;5032713;28;20049;-73
2023/08/15 09:38:10;;;;;;;14.25;5.70;;;;;;;;;;5032439;28;20025;-74
2023/08/15 09:40:37;;;;;;;15.50;6.38;;;;;;;;;;5031105;28;20116;-73
2023/08/15 09:43:03;;;;;;;14.60;5.88;;;;;;;;;;5032730;28;20044;-75
2023/08/15 09:45:30;;;;;;;11.52;5.30;;;;;;;;;;5032771;28;20030;-72
2023/08/15 09:47:56;;;;;;;12.63;5.60;;;;;;;;;;5032363;28;20494;-73
2023/08/15 09:50:23;;;;;;;12.00;4.97;;;;;;;;;;5032264;28;20026;-74
2023/08/15 09:52:49;;;;;;;14.77;5.53;;;;;;;;;;5032081;28;20420;-73
2023/08/15 09:55:16;;;;;;;14.35;6.72;;;;;;;;;;5032314;28;20029;-74
2023/08/15 09:57:43;;;;;;;18.70;5.72;;;;;;;;;;5032320;28;20382;-74
2023/08/15 10:00:12;;;;;;;12.20;5.32;;;;;;;;;;5033698;28;20026;-73
2023/08/15 10:02:48;;;;;;;14.70;5.60;;;;;;;;;;5032037;28;20470;-75
2023/08/15 10:05:17;;;;;;;17.80;5.57;;;;;;;;;;5032073;28;20024;-73
2023/08/15 10:07:43;;;;;;;15.07;5.85;;;;;;;;;;5031680;28;20013;-74
2023/08/15 10:10:10;;;;;;;11.52;4.90;;;;;;;;;;5031408;28;20080;-74
2023/08/15 10:12:37;;;;;;;14.35;5.80;;;;;;;;;;5032511;28;20044;-75
2023/08/15 10:15:03;;;;;;;12.27;5.45;;;;;;;;;;5033813;28;20113;-72
2023/08/15 10:17:29;;;;;;;12.25;4.97;;;;;;;;;;5032661;28;20083;-76
2023/08/15 10:20:00;;;;;;;10.95;4.93;;;;;;;;;;5031931;28;20100;-75
2023/08/15 10:22:26;;;;;;;20.90;5.82;;;;;;;;;;5031706;28;20074;-75
2023/08/15 10:24:52;;;;;;;9.77;5.30;;;;;;;;;;5032008;28;20413;-74
2023/08/15 10:27:20;;;;;;;11.00;5.40;;;;;;;;;;5032602;28;20032;-74
2023/08/15 10:29:59;;;;;;;12.05;5.85;;;;;;;;;;5033318;28;20549;-74
2023/08/15 10:32:26;;;;;;;11.80;5.25;;;;;;;;;;5032314;28;20057;-74
2023/08/15 10:34:53;;;;;;;12.02;5.70;;;;;;;;;;5032750;28;20475;-75
2023/08/15 10:37:30;;;;;;;12.20;5.82;;;;;;;;;;5032351;28;20372;-74
2023/08/15 10:40:12;;;;;;;9.02;4.57;;;;;;;;;;5033047;28;20025;-76
2023/08/15 10:42:57;;;;;;;11.15;4.72;;;;;;;;;;5033016;28;20026;-75
2023/08/15 10:45:23;;;;;;;11.20;4.32;;;;;;;;;;5032652;28;20022;-74
2023/08/15 10:47:49;;;;;;;13.43;4.95;;;;;;;;;;5032335;28;20035;-75
2023/08/15 10:50:16;;;;;;;10.35;4.53;;;;;;;;;;5032346;28;20025;-74
2023/08/15 10:52:42;;;;;;;6.95;4.45;;;;;;;;;;5033136;28;20039;-74
2023/08/15 10:55:09;;;;;;;8.32;5.28;;;;;;;;;;5032773;28;20037;-75
2023/08/15 10:57:36;;;;;;;10.25;4.72;;;;;;;;;;5031600;28;20029;-75
2023/08/15 11:00:02;;;;;;;8.07;4.75;;;;;;;;;;5032161;28;20033;-75
2023/08/15 11:02:28;;;;;;;11.23;5.30;;;;;;;;;;5031870;28;20036;-72
2023/08/15 11:04:55;;;;;;;11.98;5.93;;;;;;;;;;5031346;28;20053;-73
2023/08/15 11:07:24;;;;;;;16.95;7.28;;;;;;;;;;5031267;28;20551;-74
2023/08/15 11:09:50;;;;;;;11.10;6.78;;;;;;;;;;5031293;28;20032;-74
2023/08/15 11:12:16;;;;;;;13.30;7.25;;;;;;;;;;5031293;28;20028;-74
2023/08/15 11:14:42;;;;;;;11.48;6.70;;;;;;;;;;5031195;28;20057;-74
2023/08/15 11:17:10;;;;;;;14.48;6.63;;;;;;;;;;5031698;28;20018;-73
2023/08/15 11:19:36;;;;;;;10.57;5.57;;;;;;;;;;5032076;28;20430;-74
2023/08/15 11:22:02;;;;;;;11.93;5.47;;;;;;;;;;5035229;28;20625;-74
2023/08/15 11:24:31;;;;;;;11.65;5.90;;;;;;;;;;5035213;28;20025;-74
2023/08/15 11:27:01;;;;;;;11.43;5.40;;;;;;;;;;5035043;28;20047;-72
2023/08/15 11:29:27;;;;;;;13.30;5.60;;;;;;;;;;5036046;28;20045;-73
2023/08/15 11:31:58;;;;;;;13.45;5.63;;;;;;;;;;5036068;28;20376;-74
2023/08/15 11:34:24;;;;;;;14.05;6.10;;;;;;;;;;5034223;28;20442;-72
2023/08/15 11:36:51;;;;;;;14.38;5.28;;;;;;;;;;5035979;28;20116;-73
2023/08/15 11:39:17;;;;;;;13.93;6.50;;;;;;;;;;5037004;28;20026;-73
2023/08/15 11:41:44;;;;;;;15.85;7.00;;;;;;;;;;5036214;28;20103;-72
2023/08/15 11:44:10;;;;;;;12.68;6.30;;;;;;;;;;5035376;28;20441;-73
2023/08/15 11:46:37;;;;;;;12.88;6.65;;;;;;;;;;5035882;28;20392;-74
2023/08/15 11:49:03;;;;;;;19.42;8.88;;;;;;;;;;5035375;28;20025;-76
2023/08/15 11:51:29;;;;;;;12.07;7.55;;;;;;;;;;5037123;28;20029;-74
2023/08/15 11:53:56;;;;;;;18.77;10.13;;;;;;;;;;5034536;28;20112;-74
2023/08/15 11:56:22;;;;;;;18.48;10.10;;;;;;;;;;5034878;28;20433;-75
2023/08/15 11:58:49;;;;;;;18.50;11.00;;;;;;;;;;5034881;28;20036;-73
2023/08/15 12:01:15;;;;;;;19.77;11.52;;;;;;;;;;5035234;28;20387;-72
2023/08/15 12:03:41;;;;;;;25.15;11.68;;;;;;;;;;5034723;28;20439;-74
2023/08/15 12:06:08;;;;;;;23.35;11.82;;;;;;;;;;5034824;28;20159;-75
2023/08/15 12:08:34;;;;;;;20.75;11.27;;;;;;;;;;5033282;28;20022;-73
2023/08/15 12:11:02;;;;;;;20.40;11.35;;;;;;;;;;5034415;28;20033;-74
2023/08/15 12:13:38;;;;;;;26.58;11.77;;;;;;;;;;5034047;28;20084;-74
2023/08/15 12:16:05;;;;;;;23.33;9.57;;;;;;;;;;5034144;28;20426;-74
2023/08/15 12:18:31;;;;;;;21.65;10.30;;;;;;;;;;5034433;28;20060;-74
2023/08/15 12:20:57;;;;;;;28.38;11.75;;;;;;;;;;5034105;28;20035;-74
2023/08/15 12:23:23;;;;;;;25.40;11.90;;;;;;;;;;5033432;28;20021;-74
2023/08/15 12:25:49;;;;;;;22.38;12.32;;;;;;;;;;5034811;28;20025;-75
2023/08/15 12:28:18;;;;;;;21.45;10.98;;;;;;;;;;5034906;28;20021;-75
2023/08/15 12:30:44;;;;;;;26.92;15.55;;;;;;;;;;5034213;28;20024;-75
2023/08/15 12:33:11;;;;;;;20.95;10.90;;;;;;;;;;5033489;28;20029;-77
2023/08/15 12:35:37;;;;;;;18.45;8.35;;;;;;;;;;5033975;28;20475;-77
2023/08/15 12:38:03;;;;;;;15.48;7.72;;;;;;;;;;5034649;28;20021;-76
2023/08/15 12:40:29;;;;;;;17.70;6.70;;;;;;;;;;5034406;28;20483;-77
2023/08/15 12:42:56;;;;;;;13.93;7.30;;;;;;;;;;5034085;28;20025;-76
2023/08/15 12:45:22;;;;;;;23.17;9.07;;;;;;;;;;5030557;28;20018;-73
2023/08/15 12:47:48;;;;;;;18.08;8.40;;;;;;;;;;5033394;28;20021;-74
2023/08/15 12:50:14;;;;;;;13.57;7.03;;;;;;;;;;5031991;28;20100;-74
2023/08/15 12:52:40;;;;;;;14.68;6.55;;;;;;;;;;5030928;28;20052;-74
2023/08/15 12:55:06;;;;;;;21.33;6.93;;;;;;;;;;5042581;28;20037;-74
2023/08/15 12:57:32;;;;;;;15.07;5.35;;;;;;;;;;5033005;28;20053;-73
2023/08/15 12:59:58;;;;;;;16.38;5.65;;;;;;;;;;5033554;28;20061;-74
2023/08/15 13:02:24;;;;;;;11.68;5.10;;;;;;;;;;5031271;28;20468;-74
2023/08/15 13:04:50;;;;;;;8.05;4.50;;;;;;;;;;5032738;28;20030;-75
2023/08/15 13:07:16;;;;;;;9.23;4.00;;;;;;;;;;5033019;28;20032;-74
2023/08/15 13:09:42;;;;;;;14.15;3.80;;;;;;;;;;5031375;28;20454;-74
2023/08/15 13:12:08;;;;;;;14.63;4.57;;;;;;;;;;5032603;28;20030;-74
2023/08/15 13:14:34;;;;;;;14.13;4.72;;;;;;;;;;5032581;28;20026;-74
2023/08/15 13:17:00;;;;;;;9.68;4.55;;;;;;;;;;5032660;28;20104;-74
2023/08/15 13:19:27;;;;;;;10.52;3.90;;;;;;;;;;5031045;28;20022;-75
2023/08/15 13:21:53;;;;;;;13.32;4.35;;;;;;;;;;5032111;28;20395;-75
2023/08/15 13:24:19;;;;;;;9.93;3.30;;;;;;;;;;5032486;28;20460;-74
2023/08/15 13:26:45;;;;;;;11.05;3.30;;;;;;;;;;5030986;28;20498;-74
2023/08/15 13:29:11;;;;;;;5.82;2.85;;;;;;;;;;5032555;28;20092;-75
2023/08/15 13:31:37;;;;;;;9.63;3.20;;;;;;;;;;5032546;28;20029;-75
2023/08/15 13:34:03;;;;;;;7.43;3.28;;;;;;;;;;5030709;28;20017;-73
2023/08/15 13:36:29;;;;;;;9.75;3.28;;;;;;;;;;5031583;28;20124;-74
2023/08/15 13:38:55;;;;;;;4.57;2.80;;;;;;;;;;5032433;28;20503;-74
2023/08/15 13:41:21;;;;;;;7.18;2.75;;;;;;;;;;5032167;28;20029;-74
2023/08/15 13:43:48;;;;;;;7.78;3.08;;;;;;;;;;5030041;28;20022;-74
2023/08/15 13:46:14;;;;;;;6.70;2.22;;;;;;;;;;5032307;28;20022;-75
2023/08/15 13:48:40;;;;;;;16.02;9.35;;;;;;;;;;5032421;28;20105;-75
2023/08/15 13:51:16;;;;;;;20.63;13.13;;;;;;;;;;5032354;28;20029;-74
2023/08/15 13:53:51;;;;;;;6.20;3.20;;;;;;;;;;5029913;28;20036;-77
2023/08/15 13:56:17;;;;;;;9.60;2.80;;;;;;;;;;5032411;28;20029;-75
2023/08/15 13:58:43;;;;;;;10.38;3.17;;;;;;;;;;5031967;28;20033;-73
2023/08/15 14:01:09;;;;;;;9.10;3.35;;;;;;;;;;5032161;28;20041;-74
2023/08/15 14:03:36;;;;;;;10.63;3.60;;;;;;;;;;5031958;28;20029;-76
2023/08/15 14:06:07;;;;;;;9.18;2.90;;;;;;;;;;5032560;28;20121;-73
2023/08/15 14:08:33;;;;;;;8.73;3.17;;;;;;;;;;5029291;28;20054;-73
2023/08/15 14:11:00;;;;;;;8.30;3.30;;;;;;;;;;5030800;28;20472;-74
2023/08/15 14:13:26;;;;;;;9.10;3.38;;;;;;;;;;5029952;28;20045;-74
2023/08/15 14:15:52;;;;;;;9.05;3.03;;;;;;;;;;5030591;28;20391;-73
2023/08/15 14:18:18;;;;;;;9.48;2.83;;;;;;;;;;5028347;28;20025;-74
2023/08/15 14:20:44;;;;;;;8.88;3.38;;;;;;;;;;5030181;28;20033;-74
2023/08/15 14:23:10;;;;;;;7.82;2.60;;;;;;;;;;5029674;28;20040;-74
2023/08/15 14:25:36;;;;;;;7.28;2.72;;;;;;;;;;5030781;28;20083;-74
2023/08/15 14:28:02;;;;;;;5.85;2.53;;;;;;;;;;5030496;28;20163;-73